Sunday, September 22, 2019, 12:10 PM EDT
Back to Local

KORE, Orange, Orange Municipal Airport

Location: Orange, MA, United States Lat: 42.572
Local Time: 12:10 PM EDT (16:10 GMT) Lon: -72.278
Time Zone: US/Eastern Elev: 554 ft

Show me the last for .
Show Decoded

2019-09-22 11:52 METAR KORE 221552Z AUTO 16008KT 10SM CLR 25/15 A3013 RMK AO2 SLP201 T02500150 =
2019-09-22 10:52 METAR KORE 221452Z AUTO 21006KT 10SM CLR 21/16 A3015 RMK AO2 SLP209 T02110156
                 58010 =
2019-09-22 10:13 METAR KORE 221413Z AUTO 20005KT 10SM SCT003 17/15 A3016 RMK AO2 T01670150 =
2019-09-22 09:52 METAR KORE 221352Z AUTO 00000KT 10SM OVC003 16/14 A3017 RMK AO2 SLP218 T01560139
                 =
2019-09-22 09:40 METAR KORE 221340Z AUTO 00000KT 5SM BR OVC002 15/13 A3017 RMK AO2 T01500133 =
2019-09-22 09:31 METAR KORE 221331Z AUTO 00000KT 2SM BR OVC002 14/13 A3018 RMK AO2 T01440133 =
2019-09-22 09:27 METAR KORE 221327Z AUTO 00000KT 1 1/4SM BR OVC002 14/13 A3018 RMK AO2 T01440133
                 =
2019-09-22 08:52 METAR KORE 221252Z AUTO 00000KT 1/2SM FG OVC002 13/12 A3019 RMK AO2 SLP224
                 T01330122 =
2019-09-22 07:52 METAR KORE 221152Z AUTO 00000KT M1/4SM FG VV002 12/12 A3018 RMK AO2 SLP221
                 T01220117 10139 20122 50003 =
2019-09-22 06:52 METAR KORE 221052Z AUTO 00000KT M1/4SM FG VV002 12/12 A3018 RMK AO2 SLP221
                 T01220117 =
2019-09-22 05:52 METAR KORE 220952Z AUTO 00000KT 1/4SM FG VV002 13/12 A3019 RMK AO2 SLP221
                 T01280122 =
2019-09-22 04:52 METAR KORE 220852Z AUTO 00000KT 1/4SM FG VV003 13/12 A3017 RMK AO2 SLP216
                 T01330122 57007 =
2019-09-22 03:52 METAR KORE 220752Z AUTO 00000KT 1/4SM FG VV002 14/13 A3018 RMK AO2 SLP219
                 T01390128 =
2019-09-22 02:52 METAR KORE 220652Z AUTO 00000KT 1/2SM FG OVC002 14/13 A3018 RMK AO2 SLP219
                 T01390128 =
2019-09-22 01:52 METAR KORE 220552Z AUTO 00000KT 1/2SM FG VV002 13/12 A3019 RMK AO2 SLP223
                 T01280117 10189 20122 53001 =
2019-09-22 00:52 METAR KORE 220452Z AUTO 00000KT 1/2SM FG VV003 13/12 A3019 RMK AO2 SLP223
                 T01330122 402940083 =
2019-09-22 00:16 METAR KORE 220416Z AUTO 00000KT 3/4SM BR CLR 14/13 A3019 RMK AO2 T01390128 =
2019-09-22 00:13 METAR KORE 220413Z AUTO 00000KT 1 1/4SM BR CLR 14/13 A3019 RMK AO2 T01390128 =
2019-09-22 00:11 METAR KORE 220411Z AUTO 00000KT 2SM BR CLR 14/13 A3019 RMK AO2 VIS 1V5 T01390128
                 =
2019-09-21 23:52 METAR KORE 220352Z AUTO 00000KT 10SM CLR 14/13 A3019 RMK AO2 SLP222 T01440133 =
2019-09-21 22:52 METAR KORE 220252Z AUTO 00000KT 9SM CLR 16/14 A3019 RMK AO2 SLP222 T01560139
                 51007 =
2019-09-21 21:52 METAR KORE 220152Z AUTO 00000KT 10SM CLR 16/15 A3019 RMK AO2 SLP222 T01610150 =
2019-09-21 20:52 METAR KORE 220052Z AUTO 00000KT 10SM CLR 18/16 A3018 RMK AO2 SLP219 T01780156 =
2019-09-21 19:52 METAR KORE 212352Z AUTO 00000KT 10SM CLR 19/16 A3017 RMK AO2 SLP217 T01940161
                 10294 20194 52004 =
2019-09-21 18:52 METAR KORE 212252Z AUTO 21004KT 10SM CLR 22/16 A3016 RMK AO2 SLP215 T02170161 =
2019-09-21 17:52 METAR KORE 212152Z AUTO 20008KT 10SM CLR 27/14 A3016 RMK AO2 SLP214 T02720144 =
2019-09-21 16:52 METAR KORE 212052Z AUTO 28005KT 10SM CLR 28/13 A3016 RMK AO2 SLP211 T02830133
                 56008 =
2019-09-21 15:52 METAR KORE 211952Z AUTO 29007KT 10SM CLR 29/14 A3016 RMK AO2 SLP211 T02890144 =
2019-09-21 14:52 METAR KORE 211852Z AUTO 25005KT 10SM CLR 28/13 A3017 RMK AO2 SLP214 T02830133 =
2019-09-21 13:52 METAR KORE 211752Z AUTO 20004KT 10SM CLR 28/14 A3018 RMK AO2 SLP219 T02780139
                 10283 20111 56019 =
2019-09-21 12:52 METAR KORE 211652Z AUTO VRB04KT 10SM CLR 27/14 A3020 RMK AO2 SLP225 T02720139 =

Support USWX by starting your Amazon purchase here.